createdAt,value
2019-04-05T00:00:03.072Z,788.46
2019-04-05T00:00:07.384Z,788.48
2019-04-05T00:00:11.671Z,788.48
2019-04-05T00:00:16.052Z,788.43
2019-04-05T00:00:20.248Z,788.42
2019-04-05T00:00:24.540Z,788.45
2019-04-05T00:00:28.827Z,788.42
2019-04-05T00:00:33.120Z,788.38
2019-04-05T00:00:37.418Z,788.39
2019-04-05T00:00:41.719Z,788.37
2019-04-05T00:00:46.006Z,788.39
2019-04-05T00:00:50.216Z,788.39
2019-04-05T00:00:54.523Z,788.37
2019-04-05T00:00:58.822Z,788.33
2019-04-05T00:01:03.122Z,788.33
2019-04-05T00:01:07.428Z,788.33
2019-04-05T00:01:11.727Z,788.36
2019-04-05T00:01:16.039Z,788.37
2019-04-05T00:01:20.328Z,788.36
2019-04-05T00:01:24.684Z,788.36
2019-04-05T00:01:28.982Z,788.31
2019-04-05T00:01:33.210Z,788.33
2019-04-05T00:01:37.513Z,788.33
2019-04-05T00:01:41.807Z,788.3
2019-04-05T00:01:46.186Z,788.31
2019-04-05T00:01:50.479Z,788.3
2019-04-05T00:01:54.775Z,788.27
2019-04-05T00:01:59.075Z,788.26
2019-04-05T00:02:03.381Z,788.26
2019-04-05T00:02:07.688Z,788.25
2019-04-05T00:02:11.980Z,788.26
2019-04-05T00:02:16.270Z,788.26
2019-04-05T00:02:20.565Z,788.18
2019-04-05T00:02:24.758Z,788.16
2019-04-05T00:02:29.050Z,788.13
2019-04-05T00:02:33.337Z,788.17
2019-04-05T00:02:37.537Z,788.15
2019-04-05T00:02:41.896Z,788.1
2019-04-05T00:02:46.201Z,788.12
2019-04-05T00:02:50.502Z,788.1
2019-04-05T00:02:54.790Z,788.13
2019-04-05T00:02:59.085Z,788.07
2019-04-05T00:03:03.327Z,788.01
2019-04-05T00:03:07.669Z,788.01
2019-04-05T00:03:11.964Z,788
2019-04-05T00:03:16.268Z,787.99
2019-04-05T00:03:20.558Z,788.01
2019-04-05T00:03:24.850Z,787.98
2019-04-05T00:03:29.045Z,787.94
2019-04-05T00:03:33.336Z,787.93
2019-04-05T00:03:37.540Z,787.95
2019-04-05T00:03:41.840Z,787.91
2019-04-05T00:03:46.135Z,787.87
2019-04-05T00:03:50.440Z,787.86
2019-04-05T00:03:54.795Z,787.85
2019-04-05T00:03:59.086Z,787.86
2019-04-05T00:04:03.537Z,787.85
2019-04-05T00:04:07.870Z,787.81
2019-04-05T00:04:12.065Z,787.78
2019-04-05T00:04:16.351Z,787.8
2019-04-05T00:04:20.644Z,787.8
2019-04-05T00:04:24.858Z,787.76
2019-04-05T00:04:29.163Z,787.74
2019-04-05T00:04:33.480Z,787.74
2019-04-05T00:04:37.776Z,787.8
2019-04-05T00:04:42.067Z,787.77
2019-04-05T00:04:46.378Z,787.78
2019-04-05T00:04:50.573Z,787.75
2019-04-05T00:04:54.863Z,787.71
2019-04-05T00:04:59.155Z,787.7
2019-04-05T00:05:03.462Z,787.68
2019-04-05T00:05:07.751Z,787.66
2019-04-05T00:05:11.946Z,787.69
2019-04-05T00:05:16.164Z,787.68
2019-04-05T00:05:20.362Z,787.66
2019-04-05T00:05:24.677Z,787.68
2019-04-05T00:05:28.991Z,787.67
2019-04-05T00:05:33.308Z,787.63
2019-04-05T00:05:37.593Z,787.64
2019-04-05T00:05:41.892Z,787.61
2019-04-05T00:05:46.191Z,787.55
2019-04-05T00:05:50.423Z,787.62
2019-04-05T00:05:54.626Z,787.56
2019-04-05T00:05:58.923Z,787.56
2019-04-05T00:06:03.272Z,787.56
2019-04-05T00:06:07.503Z,787.55
2019-04-05T00:06:11.811Z,787.55
2019-04-05T00:06:16.108Z,787.54
2019-04-05T00:06:20.311Z,787.52
2019-04-05T00:06:24.602Z,787.52
2019-04-05T00:06:28.906Z,787.51
2019-04-05T00:06:33.221Z,787.49
2019-04-05T00:06:37.431Z,787.46
2019-04-05T00:06:41.800Z,787.47
2019-04-05T00:06:46.003Z,787.5
2019-04-05T00:06:50.295Z,787.48
2019-04-05T00:06:54.592Z,787.46
2019-04-05T00:06:58.922Z,787.42
2019-04-05T00:07:03.329Z,787.42
2019-04-05T00:07:07.618Z,787.42
2019-04-05T00:07:11.832Z,787.42
2019-04-05T00:07:16.129Z,787.38
2019-04-05T00:07:20.418Z,787.39
2019-04-05T00:07:24.711Z,787.4
2019-04-05T00:07:28.903Z,787.37
2019-04-05T00:07:33.226Z,787.32
2019-04-05T00:07:37.434Z,787.31
2019-04-05T00:07:41.635Z,787.34
2019-04-05T00:07:45.941Z,787.36
2019-04-05T00:07:50.250Z,787.34
2019-04-05T00:07:54.446Z,787.3
2019-04-05T00:07:58.752Z,787.25
2019-04-05T00:08:03.039Z,787.28
2019-04-05T00:08:07.339Z,787.26
2019-04-05T00:08:11.637Z,787.25
2019-04-05T00:08:15.950Z,787.21
2019-04-05T00:08:20.248Z,787.24
2019-04-05T00:08:24.353Z,787.24
2019-04-05T00:08:28.666Z,787.21
2019-04-05T00:08:32.859Z,787.22
2019-04-05T00:08:37.162Z,787.21
2019-04-05T00:08:41.451Z,787.17
2019-04-05T00:08:45.651Z,787.16
2019-04-05T00:08:49.858Z,787.18
2019-04-05T00:08:54.157Z,787.14
2019-04-05T00:08:58.452Z,787.09
2019-04-05T00:09:02.761Z,787.1
2019-04-05T00:09:07.053Z,787.15
2019-04-05T00:09:11.364Z,787.11
2019-04-05T00:09:15.664Z,787.1
2019-04-05T00:09:19.958Z,787.09
2019-04-05T00:09:24.261Z,787.09
2019-04-05T00:09:28.621Z,787.09
2019-04-05T00:09:32.821Z,787.07
2019-04-05T00:09:37.114Z,787.08
2019-04-05T00:09:41.462Z,787.07
2019-04-05T00:09:45.756Z,787.03
2019-04-05T00:09:50.060Z,787.06
2019-04-05T00:09:54.362Z,787.04
2019-04-05T00:09:58.657Z,787
2019-04-05T00:10:02.960Z,787.07
2019-04-05T00:10:07.258Z,787.07
2019-04-05T00:10:11.456Z,787.04
2019-04-05T00:10:15.800Z,787.05
2019-04-05T00:10:20.096Z,787.04
2019-04-05T00:10:24.403Z,787.04
2019-04-05T00:10:28.696Z,787.04
2019-04-05T00:10:32.981Z,787.02
2019-04-05T00:10:37.281Z,786.98
2019-04-05T00:10:41.610Z,786.98
2019-04-05T00:10:45.902Z,786.95
2019-04-05T00:10:50.175Z,787.01
2019-04-05T00:10:54.484Z,786.99
2019-04-05T00:10:58.780Z,786.97
2019-04-05T00:11:02.973Z,786.97
2019-04-05T00:11:07.263Z,786.93
2019-04-05T00:11:11.554Z,787.02
2019-04-05T00:11:15.846Z,786.99
2019-04-05T00:11:20.137Z,786.98
2019-04-05T00:11:24.440Z,786.97
2019-04-05T00:11:28.729Z,786.99
2019-04-05T00:11:33.018Z,786.98
2019-04-05T00:11:37.316Z,786.96
2019-04-05T00:11:41.610Z,787
2019-04-05T00:11:45.943Z,786.99
2019-04-05T00:11:50.226Z,786.98
2019-04-05T00:11:54.524Z,786.99
2019-04-05T00:11:58.723Z,786.97
2019-04-05T00:12:03.078Z,786.97
2019-04-05T00:12:07.364Z,786.96
2019-04-05T00:12:11.579Z,786.96
2019-04-05T00:12:15.790Z,786.97
2019-04-05T00:12:20.086Z,786.93
2019-04-05T00:12:24.379Z,786.94
2019-04-05T00:12:28.577Z,786.92
2019-04-05T00:12:32.882Z,786.93
2019-04-05T00:12:37.219Z,786.93
2019-04-05T00:12:41.432Z,786.94
2019-04-05T00:12:45.734Z,786.91
2019-04-05T00:12:50.053Z,786.89
2019-04-05T00:12:54.356Z,786.92
2019-04-05T00:12:58.652Z,786.99
2019-04-05T00:13:03.026Z,786.96
2019-04-05T00:13:07.226Z,786.96
2019-04-05T00:13:11.525Z,786.96
2019-04-05T00:13:15.715Z,786.96
2019-04-05T00:13:19.820Z,786.94
2019-04-05T00:13:24.110Z,786.94
2019-04-05T00:13:28.406Z,786.89
2019-04-05T00:13:32.601Z,786.93
2019-04-05T00:13:36.893Z,786.95
2019-04-05T00:13:41.188Z,786.96
2019-04-05T00:13:45.494Z,786.95
2019-04-05T00:13:49.814Z,786.95
2019-04-05T00:13:54.111Z,786.94
2019-04-05T00:13:58.307Z,786.93
2019-04-05T00:14:02.598Z,786.95
2019-04-05T00:14:06.899Z,786.95
2019-04-05T00:14:11.246Z,786.91
2019-04-05T00:14:15.446Z,786.98
2019-04-05T00:14:19.735Z,786.97
2019-04-05T00:14:24.023Z,786.94
2019-04-05T00:14:28.339Z,786.97
2019-04-05T00:14:32.638Z,786.95
2019-04-05T00:14:36.925Z,786.93
2019-04-05T00:14:41.219Z,786.9
2019-04-05T00:14:45.517Z,786.92
2019-04-05T00:14:49.809Z,786.9
2019-04-05T00:14:54.112Z,786.93
2019-04-05T00:14:58.403Z,786.93
2019-04-05T00:15:16.986Z,786.92
2019-04-05T00:15:21.279Z,786.9
2019-04-05T00:15:25.576Z,786.92
2019-04-05T00:15:29.675Z,786.93
2019-04-05T00:15:34.057Z,786.9
2019-04-05T00:15:40.842Z,786.89
2019-04-05T00:15:45.144Z,786.89
2019-04-05T00:15:49.449Z,786.89
2019-04-05T00:15:53.654Z,786.93
2019-04-05T00:15:57.857Z,786.92
2019-04-05T00:16:02.211Z,786.9
2019-04-05T00:16:06.512Z,786.92
2019-04-05T00:16:10.816Z,786.91
2019-04-05T00:16:15.110Z,786.91
2019-04-05T00:16:19.471Z,786.91
2019-04-05T00:16:23.762Z,786.91
2019-04-05T00:16:27.866Z,786.93
2019-04-05T00:16:32.135Z,786.94
2019-04-05T00:16:36.326Z,786.92
2019-04-05T00:16:40.430Z,786.95
2019-04-05T00:16:44.437Z,786.9
2019-04-05T00:16:48.539Z,786.94
2019-04-05T00:16:52.735Z,786.93
2019-04-05T00:16:57.032Z,786.95
2019-04-05T00:17:01.246Z,786.94
2019-04-05T00:17:05.651Z,786.91
2019-04-05T00:17:09.844Z,786.93
2019-04-05T00:17:14.150Z,786.92
2019-04-05T00:17:18.443Z,786.96
2019-04-05T00:17:22.747Z,786.91
2019-04-05T00:17:26.858Z,786.89
2019-04-05T00:17:31.053Z,786.94
2019-04-05T00:17:35.350Z,786.93
2019-04-05T00:17:39.459Z,786.93
2019-04-05T00:17:43.758Z,786.95
2019-04-05T00:17:47.975Z,786.91
2019-04-05T00:17:52.172Z,786.93
2019-04-05T00:17:56.376Z,786.94
2019-04-05T00:18:00.683Z,786.92
2019-04-05T00:18:05.009Z,786.95
2019-04-05T00:18:09.307Z,786.95
2019-04-05T00:18:13.600Z,786.94
2019-04-05T00:18:17.797Z,786.94
2019-04-05T00:18:22.093Z,786.91
2019-04-05T00:18:26.451Z,786.95
2019-04-05T00:18:30.745Z,786.98
2019-04-05T00:18:34.951Z,786.94
2019-04-05T00:18:39.258Z,786.94
2019-04-05T00:18:43.549Z,786.92
2019-04-05T00:18:47.841Z,786.96
2019-04-05T00:18:52.140Z,786.93
2019-04-05T00:18:56.149Z,786.96
2019-04-05T00:19:00.349Z,786.97
2019-04-05T00:19:04.654Z,786.95
2019-04-05T00:19:08.854Z,786.95
2019-04-05T00:19:13.145Z,786.92
2019-04-05T00:19:17.415Z,786.93
2019-04-05T00:19:21.519Z,786.89
2019-04-05T00:19:25.843Z,786.91
2019-04-05T00:19:30.034Z,786.92
2019-04-05T00:19:34.132Z,786.98
2019-04-05T00:19:38.431Z,786.93
2019-04-05T00:19:42.731Z,786.94
2019-04-05T00:19:47.019Z,786.96
2019-04-05T00:19:51.124Z,786.97
2019-04-05T00:19:55.329Z,786.93
2019-04-05T00:19:59.638Z,786.93
2019-04-05T00:20:03.961Z,786.95
2019-04-05T00:20:08.173Z,786.95
2019-04-05T00:20:12.292Z,786.96
2019-04-05T00:20:16.594Z,786.96
2019-04-05T00:20:20.799Z,786.96
2019-04-05T00:20:25.097Z,786.94
2019-04-05T00:20:29.400Z,786.93
2019-04-05T00:20:33.704Z,786.98
2019-04-05T00:20:37.994Z,786.98
2019-04-05T00:20:42.198Z,786.97
2019-04-05T00:20:46.391Z,787
2019-04-05T00:20:50.686Z,786.98
2019-04-05T00:20:54.979Z,786.98
2019-04-05T00:20:59.284Z,787
2019-04-05T00:21:03.709Z,786.98
2019-04-05T00:21:07.921Z,786.96
2019-04-05T00:21:12.073Z,786.98
2019-04-05T00:21:16.372Z,787
2019-04-05T00:21:20.569Z,786.98
2019-04-05T00:21:24.871Z,786.99
2019-04-05T00:21:29.159Z,786.99
2019-04-05T00:21:33.356Z,787.01
2019-04-05T00:21:37.549Z,786.99
2019-04-05T00:21:41.839Z,787.02
2019-04-05T00:21:46.138Z,787
2019-04-05T00:21:50.344Z,786.99
2019-04-05T00:21:54.642Z,787
2019-04-05T00:21:58.835Z,787
2019-04-05T00:22:03.183Z,787.03
2019-04-05T00:22:07.484Z,787.01
2019-04-05T00:22:11.856Z,786.99
2019-04-05T00:22:16.212Z,786.99
2019-04-05T00:22:20.415Z,786.99
2019-04-05T00:22:24.725Z,787.01
2019-04-05T00:22:29.035Z,787.02
2019-04-05T00:22:33.327Z,787.03
2019-04-05T00:22:37.537Z,787.03
2019-04-05T00:22:41.844Z,787.03
2019-04-05T00:22:46.142Z,787.01
2019-04-05T00:22:50.441Z,787.01
2019-04-05T00:22:54.650Z,787
2019-04-05T00:22:58.963Z,787
2019-04-05T00:23:03.270Z,787.01
2019-04-05T00:23:07.592Z,787.02
2019-04-05T00:23:11.954Z,786.98
2019-04-05T00:23:16.169Z,787
2019-04-05T00:23:20.403Z,786.95
2019-04-05T00:23:24.744Z,786.98
2019-04-05T00:23:29.047Z,786.98
2019-04-05T00:23:33.235Z,786.98
2019-04-05T00:23:37.458Z,787
2019-04-05T00:23:41.654Z,787.04
2019-04-05T00:23:45.958Z,787.02
2019-04-05T00:23:50.250Z,787.04
2019-04-05T00:23:54.544Z,787
2019-04-05T00:23:58.754Z,787.01
2019-04-05T00:24:03.055Z,787.02
2019-04-05T00:24:07.358Z,787.02
2019-04-05T00:24:11.676Z,786.98
2019-04-05T00:24:16.026Z,786.97
2019-04-05T00:24:20.347Z,786.98
2019-04-05T00:24:24.550Z,787
2019-04-05T00:24:28.746Z,787.05
2019-04-05T00:24:32.842Z,787
2019-04-05T00:24:37.136Z,787
2019-04-05T00:24:41.459Z,787
2019-04-05T00:24:45.753Z,787
2019-04-05T00:24:50.056Z,787
2019-04-05T00:24:54.362Z,786.98
2019-04-05T00:24:58.656Z,786.97
2019-04-05T00:25:02.991Z,786.95
2019-04-05T00:25:07.206Z,786.94
2019-04-05T00:25:11.407Z,786.98
2019-04-05T00:25:15.607Z,787
2019-04-05T00:25:19.705Z,786.99
2019-04-05T00:25:23.917Z,786.96
2019-04-05T00:25:28.222Z,786.98
2019-04-05T00:25:32.524Z,786.97
2019-04-05T00:25:36.727Z,786.97
2019-04-05T00:25:41.028Z,786.97
2019-04-05T00:25:45.321Z,786.96
2019-04-05T00:25:49.533Z,786.97
2019-04-05T00:25:53.756Z,786.94
2019-04-05T00:25:57.758Z,786.97
2019-04-05T00:26:01.911Z,786.95
2019-04-05T00:26:06.216Z,786.94
2019-04-05T00:26:10.520Z,786.96
2019-04-05T00:26:14.821Z,786.92
2019-04-05T00:26:19.115Z,786.89
2019-04-05T00:26:23.413Z,786.95
2019-04-05T00:26:27.536Z,786.89
2019-04-05T00:26:31.750Z,786.95
2019-04-05T00:26:35.949Z,786.91
2019-04-05T00:26:40.154Z,786.86
2019-04-05T00:26:44.506Z,786.84
2019-04-05T00:26:48.710Z,786.83
2019-04-05T00:26:52.909Z,786.85
2019-04-05T00:26:57.267Z,786.88
2019-04-05T00:27:01.561Z,786.88
2019-04-05T00:27:05.870Z,786.81
2019-04-05T00:27:10.170Z,786.83
2019-04-05T00:27:14.438Z,786.86
2019-04-05T00:27:18.744Z,786.86
2019-04-05T00:27:22.842Z,786.82
2019-04-05T00:27:27.142Z,786.84
2019-04-05T00:27:31.370Z,786.84
2019-04-05T00:27:35.679Z,786.86
2019-04-05T00:27:39.884Z,786.86
2019-04-05T00:27:44.092Z,786.85
2019-04-05T00:27:48.290Z,786.82
2019-04-05T00:27:52.479Z,786.83
2019-04-05T00:27:56.770Z,786.82
2019-04-05T00:28:01.069Z,786.78
2019-04-05T00:28:05.371Z,786.82
2019-04-05T00:28:09.673Z,786.8
2019-04-05T00:28:13.963Z,786.81
2019-04-05T00:28:18.289Z,786.81
2019-04-05T00:28:22.388Z,786.81
2019-04-05T00:28:26.589Z,786.79
2019-04-05T00:28:30.688Z,786.8
2019-04-05T00:28:35.016Z,786.77
2019-04-05T00:28:39.323Z,786.74
2019-04-05T00:28:43.686Z,786.74
2019-04-05T00:28:47.895Z,786.78
2019-04-05T00:28:55.347Z,786.75
2019-04-05T00:28:59.648Z,786.75
2019-04-05T00:29:03.863Z,786.76
2019-04-05T00:29:08.154Z,786.74
2019-04-05T00:29:12.453Z,786.76
2019-04-05T00:29:16.656Z,786.73
2019-04-05T00:29:20.675Z,786.76
2019-04-05T00:29:24.982Z,786.75
2019-04-05T00:29:29.336Z,786.68
2019-04-05T00:29:33.659Z,786.68
2019-04-05T00:29:37.891Z,786.73
2019-04-05T00:29:42.103Z,786.76
2019-04-05T00:29:46.467Z,786.74
2019-04-05T00:29:50.486Z,786.73
2019-04-05T00:29:54.704Z,786.73
2019-04-05T00:29:59.016Z,786.73
2019-04-05T00:30:03.388Z,786.72
2019-04-05T00:30:07.692Z,786.72
2019-04-05T00:30:12.016Z,786.69
2019-04-05T00:30:16.318Z,786.71
2019-04-05T00:30:20.444Z,786.76
2019-04-05T00:30:24.447Z,786.76
2019-04-05T00:30:28.748Z,786.73
2019-04-05T00:30:32.944Z,786.71
2019-04-05T00:30:37.243Z,786.72
2019-04-05T00:30:41.545Z,786.74
2019-04-05T00:30:45.747Z,786.72
2019-04-05T00:30:49.944Z,786.73
2019-04-05T00:30:54.242Z,786.73
2019-04-05T00:30:58.451Z,786.7
2019-04-05T00:31:02.657Z,786.69
2019-04-05T00:31:06.857Z,786.7
2019-04-05T00:31:10.966Z,786.71
2019-04-05T00:31:15.282Z,786.71
2019-04-05T00:31:19.586Z,786.68
2019-04-05T00:31:23.796Z,786.68
2019-04-05T00:31:28.177Z,786.68
2019-04-05T00:31:32.483Z,786.66
2019-04-05T00:31:36.700Z,786.68
2019-04-05T00:31:41.075Z,786.67
2019-04-05T00:31:45.274Z,786.62
2019-04-05T00:31:49.473Z,786.67
2019-04-05T00:31:53.786Z,786.66
2019-04-05T00:31:57.996Z,786.6
2019-04-05T00:32:02.213Z,786.63
2019-04-05T00:32:06.425Z,786.63
2019-04-05T00:32:10.532Z,786.64
2019-04-05T00:32:14.840Z,786.61
2019-04-05T00:32:19.136Z,786.6
2019-04-05T00:32:23.340Z,786.58
2019-04-05T00:32:27.539Z,786.6
2019-04-05T00:32:31.833Z,786.56
2019-04-05T00:32:36.178Z,786.56
2019-04-05T00:32:40.471Z,786.55
2019-04-05T00:32:44.680Z,786.58
2019-04-05T00:32:48.973Z,786.58
2019-04-05T00:32:53.262Z,786.53
2019-04-05T00:32:57.455Z,786.51
2019-04-05T00:33:01.745Z,786.54
2019-04-05T00:33:06.058Z,786.55
2019-04-05T00:33:10.308Z,786.55
2019-04-05T00:33:14.618Z,786.55
2019-04-05T00:33:18.913Z,786.54
2019-04-05T00:33:23.207Z,786.51
2019-04-05T00:33:27.561Z,786.5
2019-04-05T00:33:31.863Z,786.5
2019-04-05T00:33:36.171Z,786.5
2019-04-05T00:33:40.466Z,786.51
2019-04-05T00:33:44.694Z,786.52
2019-04-05T00:33:49.011Z,786.53
2019-04-05T00:33:53.301Z,786.5
2019-04-05T00:33:57.591Z,786.47
2019-04-05T00:34:01.904Z,786.47
2019-04-05T00:34:06.204Z,786.48
2019-04-05T00:34:10.513Z,786.51
2019-04-05T00:34:14.812Z,786.49
2019-04-05T00:34:19.107Z,786.49
2019-04-05T00:34:23.395Z,786.52
2019-04-05T00:34:27.712Z,786.49
2019-04-05T00:34:31.917Z,786.5
2019-04-05T00:34:36.213Z,786.52
2019-04-05T00:34:40.509Z,786.51
2019-04-05T00:34:44.802Z,786.48
2019-04-05T00:34:49.107Z,786.46
2019-04-05T00:34:53.413Z,786.48
2019-04-05T00:34:57.722Z,786.48
2019-04-05T00:35:02.173Z,786.48
2019-04-05T00:35:06.279Z,786.46
2019-04-05T00:35:10.596Z,786.47
2019-04-05T00:35:14.802Z,786.44
2019-04-05T00:35:19.004Z,786.44
2019-04-05T00:35:23.208Z,786.44
2019-04-05T00:35:27.500Z,786.42
2019-04-05T00:35:31.801Z,786.45
2019-04-05T00:35:36.098Z,786.43
2019-04-05T00:35:40.488Z,786.39
2019-04-05T00:35:44.791Z,786.4
2019-04-05T00:35:48.991Z,786.43
2019-04-05T00:35:53.201Z,786.39
2019-04-05T00:35:57.499Z,786.4
2019-04-05T00:36:01.797Z,786.4
2019-04-05T00:36:06.092Z,786.42
2019-04-05T00:36:10.301Z,786.43
2019-04-05T00:36:14.591Z,786.38
2019-04-05T00:36:18.889Z,786.4
2019-04-05T00:36:23.086Z,786.38
2019-04-05T00:36:27.189Z,786.42
2019-04-05T00:36:31.552Z,786.4
2019-04-05T00:36:35.858Z,786.42
2019-04-05T00:36:40.154Z,786.44
2019-04-05T00:36:44.345Z,786.39
2019-04-05T00:36:48.651Z,786.41
2019-04-05T00:36:52.944Z,786.42
2019-04-05T00:36:57.159Z,786.41
2019-04-05T00:37:01.444Z,786.37
2019-04-05T00:37:05.742Z,786.39
2019-04-05T00:37:10.035Z,786.44
2019-04-05T00:37:14.337Z,786.38
2019-04-05T00:37:18.636Z,786.43
2019-04-05T00:37:22.954Z,786.43
2019-04-05T00:37:27.247Z,786.38
2019-04-05T00:37:31.487Z,786.4
2019-04-05T00:37:35.790Z,786.36
2019-04-05T00:37:39.993Z,786.4
2019-04-05T00:37:44.287Z,786.41
2019-04-05T00:37:48.582Z,786.37
2019-04-05T00:37:52.874Z,786.39
2019-04-05T00:37:57.165Z,786.36
2019-04-05T00:38:01.508Z,786.4
2019-04-05T00:38:05.815Z,786.4
2019-04-05T00:38:10.105Z,786.4
2019-04-05T00:38:14.399Z,786.38
2019-04-05T00:38:18.691Z,786.41
2019-04-05T00:38:22.985Z,786.4
2019-04-05T00:38:27.289Z,786.35
2019-04-05T00:38:31.589Z,786.36
2019-04-05T00:38:35.877Z,786.37
2019-04-05T00:38:40.175Z,786.35
2019-04-05T00:38:44.474Z,786.33
2019-04-05T00:38:48.780Z,786.34
2019-04-05T00:38:53.071Z,786.33
2019-04-05T00:38:57.371Z,786.35
2019-04-05T00:39:01.709Z,786.35
2019-04-05T00:39:06.005Z,786.34
2019-04-05T00:39:10.296Z,786.38
2019-04-05T00:39:14.506Z,786.35
2019-04-05T00:39:18.807Z,786.31
2019-04-05T00:39:23.104Z,786.33
2019-04-05T00:39:27.424Z,786.33
2019-04-05T00:39:31.714Z,786.3
2019-04-05T00:39:36.071Z,786.32
2019-04-05T00:39:40.363Z,786.29
2019-04-05T00:39:44.659Z,786.26
2019-04-05T00:39:48.950Z,786.26
2019-04-05T00:39:53.244Z,786.32
2019-04-05T00:39:57.535Z,786.3
2019-04-05T00:40:01.830Z,786.27
2019-04-05T00:40:06.046Z,786.29
2019-04-05T00:40:10.354Z,786.26
2019-04-05T00:40:14.557Z,786.25
2019-04-05T00:40:18.863Z,786.27
2019-04-05T00:40:23.169Z,786.26
2019-04-05T00:40:27.460Z,786.27
2019-04-05T00:40:31.753Z,786.22
2019-04-05T00:40:36.055Z,786.25
2019-04-05T00:40:40.250Z,786.23
2019-04-05T00:40:44.551Z,786.21
2019-04-05T00:40:48.754Z,786.23
2019-04-05T00:40:52.954Z,786.25
2019-04-05T00:40:57.256Z,786.23
2019-04-05T00:41:01.562Z,786.22
2019-04-05T00:41:06.011Z,786.19
2019-04-05T00:41:10.208Z,786.21
2019-04-05T00:41:14.413Z,786.19
2019-04-05T00:41:18.699Z,786.19
2019-04-05T00:41:23.010Z,786.22
2019-04-05T00:41:27.224Z,786.19
2019-04-05T00:41:34.456Z,786.2
2019-04-05T00:41:38.764Z,786.17
2019-04-05T00:41:43.060Z,786.21
2019-04-05T00:41:47.361Z,786.18
2019-04-05T00:41:51.659Z,786.2
2019-04-05T00:41:55.956Z,786.2
2019-04-05T00:42:00.253Z,786.18
2019-04-05T00:42:04.553Z,786.22
2019-04-05T00:42:08.746Z,786.18
2019-04-05T00:42:13.084Z,786.18
2019-04-05T00:42:17.280Z,786.19
2019-04-05T00:42:21.582Z,786.17
2019-04-05T00:42:25.890Z,786.16
2019-04-05T00:42:30.193Z,786.2
2019-04-05T00:42:34.489Z,786.18
2019-04-05T00:42:38.794Z,786.16
2019-04-05T00:42:43.126Z,786.15
2019-04-05T00:42:47.322Z,786.14
2019-04-05T00:42:51.620Z,786.16
2019-04-05T00:42:55.913Z,786.17
2019-04-05T00:43:00.225Z,786.14
2019-04-05T00:43:04.527Z,786.14
2019-04-05T00:43:08.834Z,786.15
2019-04-05T00:43:13.194Z,786.16
2019-04-05T00:43:17.517Z,786.17
2019-04-05T00:43:21.821Z,786.16
2019-04-05T00:43:26.113Z,786.16
2019-04-05T00:43:30.316Z,786.16
2019-04-05T00:43:34.612Z,786.15
2019-04-05T00:43:38.910Z,786.13
2019-04-05T00:43:43.221Z,786.14
2019-04-05T00:43:47.576Z,786.12
2019-04-05T00:43:51.945Z,786.08
2019-04-05T00:43:56.248Z,786.14
2019-04-05T00:44:00.551Z,786.16
2019-04-05T00:44:04.850Z,786.16
2019-04-05T00:44:09.160Z,786.15
2019-04-05T00:44:13.473Z,786.15
2019-04-05T00:44:17.792Z,786.18
2019-04-05T00:44:22.086Z,786.16
2019-04-05T00:44:26.383Z,786.17
2019-04-05T00:44:30.675Z,786.16
2019-04-05T00:44:34.937Z,786.17
2019-04-05T00:44:39.231Z,786.15
2019-04-05T00:44:43.531Z,786.13
2019-04-05T00:44:47.843Z,786.17
2019-04-05T00:44:52.037Z,786.19
2019-04-05T00:44:56.403Z,786.17
2019-04-05T00:45:00.698Z,786.19
2019-04-05T00:45:04.995Z,786.19
2019-04-05T00:45:09.292Z,786.19
2019-04-05T00:45:13.588Z,786.2
2019-04-05T00:45:31.762Z,786.17
2019-04-05T00:45:36.072Z,786.2
2019-04-05T00:45:40.368Z,786.21
2019-04-05T00:45:44.663Z,786.16
2019-04-05T00:45:48.869Z,786.25
2019-04-05T00:45:53.158Z,786.24
2019-04-05T00:45:57.451Z,786.25
2019-04-05T00:46:01.741Z,786.29
2019-04-05T00:46:06.045Z,786.28
2019-04-05T00:46:10.339Z,786.25
2019-04-05T00:46:14.539Z,786.27
2019-04-05T00:46:18.855Z,786.33
2019-04-05T00:46:23.166Z,786.28
2019-04-05T00:46:27.467Z,786.32
2019-04-05T00:46:31.667Z,786.32
2019-04-05T00:46:35.975Z,786.35
2019-04-05T00:46:40.182Z,786.34
2019-04-05T00:46:47.593Z,786.35
2019-04-05T00:46:51.888Z,786.32
2019-04-05T00:46:56.176Z,786.39
2019-04-05T00:47:00.475Z,786.43
2019-04-05T00:47:04.694Z,786.38
2019-04-05T00:47:08.890Z,786.39
2019-04-05T00:47:13.193Z,786.4
2019-04-05T00:47:17.494Z,786.42
2019-04-05T00:47:21.792Z,786.4
2019-04-05T00:47:26.110Z,786.42
2019-04-05T00:47:30.400Z,786.42
2019-04-05T00:47:34.752Z,786.38
2019-04-05T00:47:39.106Z,786.37
2019-04-05T00:47:43.395Z,786.39
2019-04-05T00:47:47.699Z,786.35
2019-04-05T00:47:52.005Z,786.39
2019-04-05T00:47:56.304Z,786.4
2019-04-05T00:48:00.598Z,786.39
2019-04-05T00:48:04.903Z,786.36
2019-04-05T00:48:09.218Z,786.34
2019-04-05T00:48:13.513Z,786.35
2019-04-05T00:48:17.817Z,786.35
2019-04-05T00:48:22.105Z,786.36
2019-04-05T00:48:26.403Z,786.36
2019-04-05T00:48:30.708Z,786.36
2019-04-05T00:48:35.000Z,786.37
2019-04-05T00:48:39.202Z,786.34
2019-04-05T00:48:43.505Z,786.35
2019-04-05T00:48:47.877Z,786.27
2019-04-05T00:48:52.170Z,786.29
2019-04-05T00:48:56.456Z,786.28
2019-04-05T00:49:00.744Z,786.31
2019-04-05T00:49:05.156Z,786.36
2019-04-05T00:49:09.446Z,786.38
2019-04-05T00:49:13.738Z,786.38
2019-04-05T00:49:17.964Z,786.33
2019-04-05T00:49:22.279Z,786.28
2019-04-05T00:49:26.593Z,786.35
2019-04-05T00:49:30.922Z,786.34
2019-04-05T00:49:35.120Z,786.33
2019-04-05T00:49:39.414Z,786.31
2019-04-05T00:49:43.704Z,786.27
2019-04-05T00:49:47.989Z,786.32
2019-04-05T00:49:52.275Z,786.3
2019-04-05T00:49:56.579Z,786.33
2019-04-05T00:50:00.864Z,786.31
2019-04-05T00:50:05.202Z,786.37
2019-04-05T00:50:09.498Z,786.3
2019-04-05T00:50:13.781Z,786.32
2019-04-05T00:50:18.081Z,786.32
2019-04-05T00:50:22.370Z,786.34
2019-04-05T00:50:26.699Z,786.3
2019-04-05T00:50:31.000Z,786.3
2019-04-05T00:50:35.309Z,786.28
2019-04-05T00:50:39.604Z,786.3
2019-04-05T00:50:43.898Z,786.28
2019-04-05T00:50:48.087Z,786.27
2019-04-05T00:50:52.382Z,786.28
2019-04-05T00:50:56.696Z,786.26
2019-04-05T00:51:00.897Z,786.28
2019-04-05T00:51:05.243Z,786.28
2019-04-05T00:51:09.547Z,786.3
2019-04-05T00:51:13.845Z,786.29
2019-04-05T00:51:18.141Z,786.28
2019-04-05T00:51:22.375Z,786.26
2019-04-05T00:51:26.689Z,786.28
2019-04-05T00:51:30.983Z,786.24
2019-04-05T00:51:35.273Z,786.25
2019-04-05T00:51:39.485Z,786.26
2019-04-05T00:51:43.787Z,786.23
2019-04-05T00:51:47.984Z,786.25
2019-04-05T00:51:52.289Z,786.26
2019-04-05T00:51:56.584Z,786.23
2019-04-05T00:52:00.871Z,786.2
2019-04-05T00:52:05.178Z,786.23
2019-04-05T00:52:09.484Z,786.2
2019-04-05T00:52:13.787Z,786.19
2019-04-05T00:52:18.080Z,786.21
2019-04-05T00:52:22.373Z,786.21
2019-04-05T00:52:26.625Z,786.18
2019-04-05T00:52:30.938Z,786.15
2019-04-05T00:52:35.243Z,786.16
2019-04-05T00:52:39.440Z,786.2
2019-04-05T00:52:43.653Z,786.16
2019-04-05T00:52:47.946Z,786.14
2019-04-05T00:52:52.245Z,786.14
2019-04-05T00:52:56.538Z,786.16
2019-04-05T00:53:00.843Z,786.14
2019-04-05T00:53:05.144Z,786.14
2019-04-05T00:53:09.344Z,786.13
2019-04-05T00:53:13.641Z,786.11
2019-04-05T00:53:17.964Z,786.11
2019-04-05T00:53:22.268Z,786.14
2019-04-05T00:53:26.622Z,786.1
2019-04-05T00:53:30.925Z,786.1
2019-04-05T00:53:35.132Z,786.11
2019-04-05T00:53:39.432Z,786.14
2019-04-05T00:53:43.729Z,786.14
2019-04-05T00:53:48.031Z,786.12
2019-04-05T00:53:52.331Z,786.1
2019-04-05T00:53:56.635Z,786.1
2019-04-05T00:54:00.929Z,786.09
2019-04-05T00:54:05.144Z,786.08
2019-04-05T00:54:09.468Z,786.1
2019-04-05T00:54:13.767Z,786.08
2019-04-05T00:54:17.963Z,786.08